createdAt,value
2022-11-30T00:01:23.404Z,33.05
2022-11-30T00:04:13.284Z,23.42
2022-11-30T00:07:01.674Z,32.00
2022-11-30T00:09:50.004Z,31.92
2022-11-30T00:12:38.598Z,32.85
2022-11-30T00:15:26.953Z,32.90
2022-11-30T00:18:16.813Z,30.98
2022-11-30T00:21:08.788Z,31.20
2022-11-30T00:23:57.283Z,32.80
2022-11-30T00:26:45.656Z,33.17
2022-11-30T00:29:34.180Z,32.10
2022-11-30T00:32:22.761Z,32.63
2022-11-30T00:35:11.097Z,34.75
2022-11-30T00:38:03.178Z,32.25
2022-11-30T00:40:51.614Z,35.72
2022-11-30T00:43:40.197Z,36.28
2022-11-30T00:46:28.611Z,32.50
2022-11-30T00:49:17.040Z,32.92
2022-11-30T00:52:05.774Z,35.90
2022-11-30T00:54:55.506Z,31.95
2022-11-30T00:57:43.858Z,32.05
2022-11-30T01:00:32.217Z,33.20
2022-11-30T01:03:20.591Z,33.75
2022-11-30T01:06:10.609Z,31.95
2022-11-30T01:09:00.229Z,33.58
2022-11-30T01:11:49.912Z,31.45
2022-11-30T01:14:38.252Z,30.70
2022-11-30T01:17:26.599Z,30.90
2022-11-30T01:20:15.143Z,29.17
2022-11-30T01:23:03.437Z,34.90
2022-11-30T01:25:55.943Z,29.88
2022-11-30T01:28:45.989Z,31.67
2022-11-30T01:31:34.327Z,29.02
2022-11-30T01:34:22.798Z,29.63
2022-11-30T01:37:11.220Z,31.15
2022-11-30T01:39:59.556Z,32.95
2022-11-30T01:42:48.522Z,30.38
2022-11-30T01:45:38.204Z,30.13
2022-11-30T01:48:26.571Z,30.15
2022-11-30T01:51:14.943Z,30.88
2022-11-30T01:54:05.421Z,32.58
2022-11-30T01:56:57.154Z,33.92
2022-11-30T01:59:45.721Z,31.60
2022-11-30T02:02:41.167Z,33.88
2022-11-30T02:05:30.121Z,30.65
2022-11-30T02:08:20.136Z,32.65
2022-11-30T02:11:13.782Z,30.90
2022-11-30T02:14:18.947Z,37.67
2022-11-30T02:17:16.748Z,31.60
2022-11-30T02:20:35.566Z,31.38
2022-11-30T02:23:56.512Z,31.90
2022-11-30T02:26:57.663Z,34.63
2022-11-30T02:29:50.291Z,35.88
2022-11-30T02:32:46.741Z,32.13
2022-11-30T02:35:38.558Z,31.58
2022-11-30T02:38:29.076Z,30.67
2022-11-30T02:41:17.431Z,31.00
2022-11-30T02:44:06.877Z,32.00
2022-11-30T02:47:16.208Z,32.67
2022-11-30T02:50:10.205Z,35.47
2022-11-30T02:52:59.353Z,31.83
2022-11-30T02:55:47.797Z,31.42
2022-11-30T02:58:36.307Z,31.67
2022-11-30T03:01:24.718Z,34.17
2022-11-30T03:04:14.497Z,32.10
2022-11-30T03:07:02.827Z,32.25
2022-11-30T03:09:51.484Z,34.10
2022-11-30T03:12:39.805Z,33.78
2022-11-30T03:15:28.735Z,32.53
2022-11-30T03:18:17.077Z,31.92
2022-11-30T03:21:08.787Z,34.20
2022-11-30T03:23:57.056Z,34.22
2022-11-30T03:26:46.004Z,33.45
2022-11-30T03:29:34.326Z,36.40
2022-11-30T03:32:22.659Z,33.30
2022-11-30T03:35:11.735Z,36.88
2022-11-30T03:38:01.437Z,34.88
2022-11-30T03:40:49.757Z,32.28
2022-11-30T03:43:38.062Z,33.80
2022-11-30T03:46:27.579Z,36.63
2022-11-30T03:49:15.969Z,35.55
2022-11-30T03:52:04.329Z,37.33
2022-11-30T03:55:05.511Z,36.10
2022-11-30T03:57:53.854Z,35.08
2022-11-30T04:00:42.215Z,35.45
2022-11-30T04:03:30.933Z,36.53
2022-11-30T04:06:19.832Z,37.60
2022-11-30T04:09:08.794Z,36.63
2022-11-30T04:11:59.045Z,34.17
2022-11-30T04:14:47.571Z,36.20
2022-11-30T04:17:36.115Z,37.50
2022-11-30T04:20:24.473Z,37.45
2022-11-30T04:23:13.730Z,36.10
2022-11-30T04:26:04.147Z,36.10
2022-11-30T04:28:53.799Z,36.70
2022-11-30T04:31:42.297Z,36.35
2022-11-30T04:34:31.631Z,36.22
2022-11-30T04:37:19.979Z,35.67
2022-11-30T04:40:09.494Z,36.47
2022-11-30T04:42:57.842Z,35.92
2022-11-30T04:45:48.313Z,37.63
2022-11-30T04:48:36.869Z,36.42
2022-11-30T04:51:25.210Z,37.10
2022-11-30T04:54:13.546Z,37.20
2022-11-30T04:57:01.848Z,36.22
2022-11-30T04:59:50.679Z,37.53
2022-11-30T05:02:40.867Z,36.10
2022-11-30T05:05:29.314Z,25.85
2022-11-30T05:08:17.677Z,35.85
2022-11-30T05:11:06.285Z,33.97
2022-11-30T05:13:54.652Z,35.17
2022-11-30T05:16:42.976Z,34.97
2022-11-30T05:19:32.734Z,35.70
2022-11-30T05:22:21.093Z,34.38
2022-11-30T05:25:10.373Z,34.10
2022-11-30T05:27:58.754Z,34.67
2022-11-30T05:30:47.314Z,34.38
2022-11-30T05:33:36.114Z,34.35
2022-11-30T05:36:25.864Z,37.78
2022-11-30T05:39:14.162Z,34.92
2022-11-30T05:42:02.477Z,34.15
2022-11-30T05:44:51.077Z,34.28
2022-11-30T05:47:39.528Z,33.78
2022-11-30T05:50:27.865Z,33.08
2022-11-30T05:53:17.584Z,34.65
2022-11-30T05:56:07.263Z,33.60
2022-11-30T05:58:55.613Z,34.08
2022-11-30T06:01:44.112Z,35.70
2022-11-30T06:04:33.699Z,35.13
2022-11-30T06:07:22.121Z,36.15
2022-11-30T06:10:13.112Z,34.00
2022-11-30T06:13:08.192Z,33.47
2022-11-30T06:15:59.997Z,33.75
2022-11-30T06:18:48.389Z,35.03
2022-11-30T06:21:36.753Z,33.78
2022-11-30T06:24:25.125Z,33.50
2022-11-30T06:27:14.828Z,33.97
2022-11-30T06:30:03.178Z,34.33
2022-11-30T06:32:53.001Z,33.08
2022-11-30T06:35:46.410Z,33.05
2022-11-30T06:38:34.795Z,34.10
2022-11-30T06:41:23.135Z,35.40
2022-11-30T06:44:12.855Z,34.15
2022-11-30T06:47:01.212Z,34.50
2022-11-30T06:49:49.496Z,34.15
2022-11-30T06:52:37.848Z,34.75
2022-11-30T06:55:26.191Z,35.25
2022-11-30T06:58:14.588Z,33.92
2022-11-30T07:01:06.051Z,36.20
2022-11-30T07:03:55.034Z,36.17
2022-11-30T07:06:43.523Z,34.00
2022-11-30T07:09:32.455Z,34.47
2022-11-30T07:12:20.862Z,34.25
2022-11-30T07:15:10.426Z,35.08
2022-11-30T07:18:02.951Z,36.45
2022-11-30T07:20:51.539Z,34.50
2022-11-30T07:23:57.659Z,34.42
2022-11-30T07:26:46.033Z,35.25
2022-11-30T07:29:34.419Z,37.92
2022-11-30T07:32:22.771Z,35.33
2022-11-30T07:35:12.540Z,36.92
2022-11-30T07:38:03.168Z,36.25
2022-11-30T07:40:55.118Z,38.10
2022-11-30T07:43:43.475Z,37.35
2022-11-30T07:46:33.537Z,39.47
2022-11-30T07:49:21.855Z,40.75
2022-11-30T07:52:11.659Z,36.15
2022-11-30T07:55:00.024Z,36.80
2022-11-30T07:57:48.362Z,38.10
2022-11-30T08:00:36.853Z,37.25
2022-11-30T08:03:25.378Z,37.85
2022-11-30T08:06:15.696Z,36.17
2022-11-30T08:09:05.528Z,37.63
2022-11-30T08:11:53.854Z,38.30
2022-11-30T08:15:17.589Z,39.70
2022-11-30T08:17:55.151Z,35.40
2022-11-30T08:20:49.688Z,40.28
2022-11-30T08:23:40.278Z,36.10
2022-11-30T08:26:31.950Z,38.03
2022-11-30T08:29:20.459Z,36.45
2022-11-30T08:32:08.779Z,37.72
2022-11-30T08:34:57.108Z,37.22
2022-11-30T08:37:45.480Z,37.03
2022-11-30T08:40:34.136Z,36.97
2022-11-30T08:43:23.883Z,36.35
2022-11-30T08:49:24.738Z,35.07
2022-11-30T08:52:18.230Z,37.30
2022-11-30T08:55:08.128Z,34.53
2022-11-30T08:57:56.522Z,34.70
2022-11-30T09:00:46.210Z,36.60
2022-11-30T09:03:34.760Z,35.55
2022-11-30T09:06:25.559Z,35.78
2022-11-30T09:09:13.914Z,37.10
2022-11-30T09:12:02.401Z,35.13
2022-11-30T09:14:57.270Z,34.35
2022-11-30T09:17:47.532Z,35.85
2022-11-30T09:20:36.155Z,36.15
2022-11-30T09:23:24.516Z,34.75
2022-11-30T09:26:16.164Z,36.05
2022-11-30T09:29:05.054Z,35.38
2022-11-30T09:31:53.436Z,35.55
2022-11-30T09:34:44.201Z,35.85
2022-11-30T09:37:32.648Z,33.83
2022-11-30T09:40:23.704Z,34.80
2022-11-30T09:46:09.573Z,32.92
2022-11-30T09:49:03.097Z,32.97
2022-11-30T09:51:54.617Z,32.65
2022-11-30T09:54:45.475Z,35.75
2022-11-30T10:00:26.069Z,31.63
2022-11-30T10:03:14.780Z,33.20
2022-11-30T10:06:09.867Z,32.42
2022-11-30T10:09:19.172Z,34.40
2022-11-30T10:12:12.674Z,34.20
2022-11-30T10:15:20.000Z,32.00
2022-11-30T10:18:18.283Z,32.80
2022-11-30T10:21:18.087Z,34.90
2022-11-30T10:24:21.122Z,32.05
2022-11-30T10:27:17.597Z,33.03
2022-11-30T10:30:15.434Z,31.52
2022-11-30T10:33:13.435Z,32.83
2022-11-30T10:36:07.149Z,32.30
2022-11-30T10:39:00.309Z,31.17
2022-11-30T10:41:54.820Z,31.17
2022-11-30T10:44:47.309Z,31.52
2022-11-30T10:47:37.762Z,32.85
2022-11-30T10:50:30.158Z,32.72
2022-11-30T10:53:18.585Z,32.05
2022-11-30T10:56:10.848Z,31.23
2022-11-30T10:59:04.475Z,30.08
2022-11-30T11:01:53.496Z,30.25
2022-11-30T11:04:41.963Z,30.77
2022-11-30T11:07:32.705Z,29.65
2022-11-30T11:10:24.790Z,29.30
2022-11-30T11:13:17.914Z,29.38
2022-11-30T11:16:09.725Z,28.02
2022-11-30T11:18:59.029Z,27.30
2022-11-30T11:21:50.241Z,29.00
2022-11-30T11:24:38.656Z,29.20
2022-11-30T11:27:29.559Z,28.35
2022-11-30T11:30:28.531Z,27.55
2022-11-30T11:33:23.713Z,28.23
2022-11-30T11:36:16.472Z,29.33
2022-11-30T11:39:25.169Z,26.70
2022-11-30T11:42:22.174Z,26.92
2022-11-30T11:45:18.421Z,28.08
2022-11-30T11:48:29.021Z,29.42
2022-11-30T11:51:31.158Z,27.88
2022-11-30T11:54:25.393Z,28.65
2022-11-30T11:57:16.666Z,28.90
2022-11-30T12:00:16.168Z,29.08
2022-11-30T12:03:15.404Z,29.30
2022-11-30T12:06:10.109Z,28.85
2022-11-30T12:09:04.329Z,27.13
2022-11-30T12:11:52.702Z,27.70
2022-11-30T12:14:41.153Z,29.25
2022-11-30T12:17:41.169Z,28.85
2022-11-30T12:20:51.280Z,28.55
2022-11-30T12:24:06.310Z,27.50
2022-11-30T12:27:05.298Z,29.00
2022-11-30T12:30:04.042Z,28.33
2022-11-30T12:33:10.056Z,27.80
2022-11-30T12:36:03.821Z,27.75
2022-11-30T12:38:58.821Z,27.50
2022-11-30T12:41:52.371Z,27.33
2022-11-30T12:44:51.169Z,28.15
2022-11-30T12:47:51.154Z,27.67
2022-11-30T12:50:50.678Z,27.10
2022-11-30T12:53:44.178Z,28.30
2022-11-30T12:56:46.165Z,28.23
2022-11-30T12:59:41.728Z,28.27
2022-11-30T13:03:01.711Z,27.92
2022-11-30T13:05:53.338Z,27.00
2022-11-30T13:08:52.463Z,28.13
2022-11-30T13:11:44.486Z,28.00
2022-11-30T13:14:34.722Z,27.90
2022-11-30T13:17:24.255Z,27.90
2022-11-30T13:20:22.384Z,28.13
2022-11-30T13:23:16.135Z,27.85
2022-11-30T13:26:10.104Z,27.27
2022-11-30T13:29:11.966Z,27.73
2022-11-30T13:32:22.247Z,27.98
2022-11-30T13:35:46.445Z,26.40
2022-11-30T13:38:37.842Z,27.25
2022-11-30T13:41:26.686Z,27.33
2022-11-30T13:44:25.389Z,27.23
2022-11-30T13:47:20.849Z,26.83
2022-11-30T13:50:21.693Z,28.08
2022-11-30T13:53:24.554Z,27.95
2022-11-30T13:56:35.018Z,27.38
2022-11-30T13:59:45.607Z,26.45
2022-11-30T14:02:54.230Z,30.35
2022-11-30T14:05:44.185Z,26.48
2022-11-30T14:08:37.285Z,26.90
2022-11-30T14:11:43.681Z,29.45
2022-11-30T14:14:46.712Z,25.63
2022-11-30T14:17:36.608Z,27.98
2022-11-30T14:20:31.049Z,27.65
2022-11-30T14:23:27.233Z,26.35
2022-11-30T14:26:19.072Z,27.10
2022-11-30T14:29:17.647Z,26.63
2022-11-30T14:32:12.658Z,26.65
2022-11-30T14:35:08.259Z,26.25
2022-11-30T14:37:58.897Z,25.63
2022-11-30T14:40:52.521Z,26.65
2022-11-30T14:43:42.313Z,26.92
2022-11-30T14:46:31.304Z,25.85
2022-11-30T14:49:21.280Z,27.63
2022-11-30T14:52:16.741Z,26.33
2022-11-30T14:55:17.032Z,26.00
2022-11-30T14:58:17.354Z,25.73
2022-11-30T15:01:18.260Z,18.90
2022-11-30T15:04:14.242Z,25.55
2022-11-30T15:07:02.587Z,26.75
2022-11-30T15:09:55.134Z,26.92
2022-11-30T15:12:45.279Z,24.85
2022-11-30T15:15:38.703Z,25.48
2022-11-30T15:18:31.216Z,26.02
2022-11-30T15:21:23.975Z,26.55
2022-11-30T15:24:12.405Z,25.73
2022-11-30T15:27:10.423Z,24.75
2022-11-30T15:30:01.749Z,26.17
2022-11-30T15:32:53.414Z,27.08
2022-11-30T15:36:13.656Z,24.73
2022-11-30T15:38:55.410Z,25.85
2022-11-30T15:41:43.809Z,23.85
2022-11-30T15:44:41.233Z,25.73
2022-11-30T15:47:36.723Z,25.75
2022-11-30T15:50:42.215Z,23.73
2022-11-30T15:53:35.665Z,23.95
2022-11-30T15:56:25.561Z,25.60
2022-11-30T15:59:23.607Z,25.77
2022-11-30T16:02:28.149Z,25.73
2022-11-30T16:05:27.692Z,24.98
2022-11-30T16:08:19.073Z,25.02
2022-11-30T16:11:08.234Z,25.80
2022-11-30T16:13:56.699Z,23.55
2022-11-30T16:16:46.524Z,26.05
2022-11-30T16:19:34.921Z,28.38
2022-11-30T16:22:23.306Z,29.95
2022-11-30T16:25:16.161Z,29.27
2022-11-30T16:28:04.678Z,25.48
2022-11-30T16:30:54.988Z,25.65
2022-11-30T16:33:43.391Z,28.38
2022-11-30T16:36:33.546Z,25.90
2022-11-30T16:39:22.138Z,28.52
2022-11-30T16:42:14.216Z,29.00
2022-11-30T16:45:02.852Z,26.30
2022-11-30T16:47:51.598Z,25.23
2022-11-30T16:50:40.120Z,27.30
2022-11-30T16:53:28.937Z,27.63
2022-11-30T16:56:17.522Z,26.85
2022-11-30T16:59:10.813Z,23.85
2022-11-30T17:02:01.909Z,25.63
2022-11-30T17:04:50.518Z,23.50
2022-11-30T17:07:38.910Z,23.08
2022-11-30T17:10:27.812Z,23.20
2022-11-30T17:13:17.977Z,22.80
2022-11-30T17:16:10.405Z,24.17
2022-11-30T17:18:58.842Z,23.73
2022-11-30T17:21:48.414Z,24.58
2022-11-30T17:24:36.807Z,23.92
2022-11-30T17:27:25.183Z,27.48
2022-11-30T17:30:15.070Z,35.60
2022-11-30T17:33:04.829Z,39.67
2022-11-30T17:35:53.140Z,37.30
2022-11-30T17:38:42.326Z,32.58
2022-11-30T17:41:30.639Z,37.47
2022-11-30T17:44:18.957Z,29.58
2022-11-30T17:47:07.253Z,25.77
2022-11-30T17:49:57.585Z,24.35
2022-11-30T17:52:45.908Z,24.63
2022-11-30T17:55:34.360Z,24.60
2022-11-30T17:58:22.631Z,23.83
2022-11-30T18:01:17.091Z,24.65
2022-11-30T18:04:05.637Z,24.20
2022-11-30T18:06:55.875Z,24.98
2022-11-30T18:09:44.239Z,25.00
2022-11-30T18:12:32.563Z,26.08
2022-11-30T18:15:20.911Z,25.48
2022-11-30T18:18:09.278Z,33.97
2022-11-30T18:21:03.320Z,29.70
2022-11-30T18:23:53.599Z,27.02
2022-11-30T18:26:42.296Z,27.17
2022-11-30T18:29:30.750Z,29.02
2022-11-30T18:32:19.124Z,25.85
2022-11-30T18:35:08.099Z,26.35
2022-11-30T18:37:56.429Z,28.38
2022-11-30T18:40:46.193Z,27.85
2022-11-30T18:43:34.924Z,27.40
2022-11-30T18:46:23.319Z,29.83
2022-11-30T18:49:11.920Z,31.17
2022-11-30T18:52:00.308Z,29.05
2022-11-30T18:54:48.770Z,29.15
2022-11-30T18:57:38.673Z,30.40
2022-11-30T19:00:27.032Z,29.67
2022-11-30T19:03:15.392Z,29.60
2022-11-30T19:06:04.884Z,31.13
2022-11-30T19:08:53.244Z,31.05
2022-11-30T19:11:42.773Z,32.83
2022-11-30T19:14:32.817Z,31.95
2022-11-30T19:17:21.256Z,31.85
2022-11-30T19:20:10.715Z,31.90
2022-11-30T19:22:59.364Z,33.15
2022-11-30T19:25:47.666Z,35.13
2022-11-30T19:28:37.620Z,33.70
2022-11-30T19:31:27.697Z,34.03
2022-11-30T19:34:16.075Z,35.28
2022-11-30T19:37:07.519Z,33.60
2022-11-30T19:39:55.820Z,33.92
2022-11-30T19:42:44.257Z,32.95
2022-11-30T19:45:32.636Z,34.22
2022-11-30T19:48:24.402Z,33.88
2022-11-30T19:51:19.757Z,35.92
2022-11-30T19:54:12.289Z,33.67
2022-11-30T19:57:08.416Z,34.58
2022-11-30T19:59:59.740Z,34.60
2022-11-30T20:05:51.532Z,32.65
2022-11-30T20:08:40.090Z,35.55
2022-11-30T20:11:28.714Z,34.55
2022-11-30T20:14:17.826Z,36.92
2022-11-30T20:17:08.911Z,37.53
2022-11-30T20:19:59.648Z,35.83
2022-11-30T20:22:51.678Z,36.25
2022-11-30T20:25:42.034Z,37.25
2022-11-30T20:28:33.445Z,36.07
2022-11-30T20:31:27.083Z,34.60
2022-11-30T20:34:23.214Z,35.72
2022-11-30T20:37:11.659Z,37.58
2022-11-30T20:40:01.335Z,36.72
2022-11-30T20:42:54.092Z,35.78
2022-11-30T20:45:42.741Z,37.15
2022-11-30T20:48:33.900Z,38.00
2022-11-30T20:51:32.817Z,36.17
2022-11-30T20:54:22.309Z,36.97
2022-11-30T20:57:13.007Z,35.28
2022-11-30T21:00:15.257Z,38.42
2022-11-30T21:03:06.073Z,37.90
2022-11-30T21:05:54.571Z,34.55
2022-11-30T21:08:46.333Z,34.85
2022-11-30T21:11:37.023Z,33.92
2022-11-30T21:14:26.893Z,36.08
2022-11-30T21:17:15.285Z,37.28
2022-11-30T21:20:04.061Z,35.10
2022-11-30T21:22:52.532Z,35.10
2022-11-30T21:25:40.875Z,36.97
2022-11-30T21:28:32.393Z,35.03
2022-11-30T21:31:28.572Z,35.63
2022-11-30T21:34:20.219Z,35.17
2022-11-30T21:37:08.539Z,37.22
2022-11-30T21:39:56.851Z,36.60
2022-11-30T21:42:50.987Z,35.97
2022-11-30T21:45:41.113Z,35.42
2022-11-30T21:48:32.188Z,36.58
2022-11-30T21:51:22.471Z,35.05
2022-11-30T21:54:14.556Z,38.03
2022-11-30T21:57:11.083Z,36.67
2022-11-30T21:59:59.419Z,35.53
2022-11-30T22:02:48.590Z,35.33
2022-11-30T22:05:38.378Z,37.47
2022-11-30T22:08:26.981Z,36.13
2022-11-30T22:11:17.516Z,35.50
2022-11-30T22:14:06.377Z,37.58
2022-11-30T22:16:54.764Z,39.00
2022-11-30T22:19:43.135Z,37.33
2022-11-30T22:22:32.878Z,36.45
2022-11-30T22:25:22.108Z,35.60
2022-11-30T22:28:10.536Z,34.63
2022-11-30T22:31:03.595Z,36.55
2022-11-30T22:33:52.242Z,36.65
2022-11-30T22:36:43.130Z,34.60
2022-11-30T22:39:32.837Z,34.55
2022-11-30T22:42:21.174Z,36.33
2022-11-30T22:45:10.549Z,37.42
2022-11-30T22:47:58.924Z,37.22
2022-11-30T22:50:47.230Z,34.80
2022-11-30T22:53:36.329Z,37.47
2022-11-30T22:56:27.582Z,36.08
2022-11-30T23:02:05.155Z,33.50
2022-11-30T23:04:53.489Z,35.45
2022-11-30T23:07:41.847Z,34.33
2022-11-30T23:10:30.228Z,35.80
2022-11-30T23:13:19.954Z,35.20
2022-11-30T23:16:09.179Z,35.60
2022-11-30T23:18:58.189Z,36.05
2022-11-30T23:21:46.700Z,34.42
2022-11-30T23:24:35.184Z,35.28
2022-11-30T23:27:23.512Z,34.88
2022-11-30T23:30:13.697Z,35.95
2022-11-30T23:33:02.078Z,37.38
2022-11-30T23:35:50.405Z,37.53
2022-11-30T23:38:39.051Z,38.67
2022-11-30T23:41:28.351Z,37.17
2022-11-30T23:44:16.970Z,38.25
2022-11-30T23:47:06.901Z,37.67
2022-11-30T23:49:55.214Z,37.50
2022-11-30T23:52:43.612Z,38.63
2022-11-30T23:55:31.906Z,38.70
2022-11-30T23:58:20.479Z,40.47
